sensor_id;sensor_type;location;lat;lon;timestamp;P1;durP1;ratioP1;P2;durP2;ratioP2
41923;SDS011;27613;48.116;11.656;2023-12-20T00:01:47;3.20;;;2.03;;
41923;SDS011;27613;48.116;11.656;2023-12-20T00:04:13;2.65;;;1.80;;
41923;SDS011;27613;48.116;11.656;2023-12-20T00:06:38;2.40;;;1.70;;
41923;SDS011;27613;48.116;11.656;2023-12-20T00:09:04;2.83;;;1.63;;
41923;SDS011;27613;48.116;11.656;2023-12-20T00:11:29;2.20;;;1.48;;
41923;SDS011;27613;48.116;11.656;2023-12-20T00:13:55;2.53;;;1.60;;
41923;SDS011;27613;48.116;11.656;2023-12-20T00:16:20;2.72;;;1.67;;
41923;SDS011;27613;48.116;11.656;2023-12-20T00:18:46;4.28;;;2.10;;
41923;SDS011;27613;48.116;11.656;2023-12-20T00:21:11;3.55;;;1.70;;
41923;SDS011;27613;48.116;11.656;2023-12-20T00:23:37;2.50;;;1.65;;
41923;SDS011;27613;48.116;11.656;2023-12-20T00:26:02;2.25;;;1.50;;
41923;SDS011;27613;48.116;11.656;2023-12-20T00:28:28;2.38;;;1.50;;
41923;SDS011;27613;48.116;11.656;2023-12-20T00:30:53;2.58;;;1.70;;
41923;SDS011;27613;48.116;11.656;2023-12-20T00:33:19;3.47;;;1.70;;
41923;SDS011;27613;48.116;11.656;2023-12-20T00:35:44;2.58;;;1.50;;
41923;SDS011;27613;48.116;11.656;2023-12-20T00:38:10;2.28;;;1.60;;
41923;SDS011;27613;48.116;11.656;2023-12-20T00:40:36;2.22;;;1.60;;
41923;SDS011;27613;48.116;11.656;2023-12-20T00:43:02;1.92;;;1.35;;
41923;SDS011;27613;48.116;11.656;2023-12-20T00:45:27;2.67;;;1.40;;
41923;SDS011;27613;48.116;11.656;2023-12-20T00:47:53;2.17;;;1.55;;
41923;SDS011;27613;48.116;11.656;2023-12-20T00:50:18;2.35;;;1.35;;
41923;SDS011;27613;48.116;11.656;2023-12-20T00:52:44;3.40;;;1.60;;
41923;SDS011;27613;48.116;11.656;2023-12-20T00:55:09;2.38;;;1.50;;
41923;SDS011;27613;48.116;11.656;2023-12-20T00:57:35;1.55;;;1.08;;
41923;SDS011;27613;48.116;11.656;2023-12-20T01:00:00;2.00;;;1.48;;
41923;SDS011;27613;48.116;11.656;2023-12-20T01:02:26;1.95;;;1.42;;
41923;SDS011;27613;48.116;11.656;2023-12-20T01:04:52;2.15;;;1.48;;
41923;SDS011;27613;48.116;11.656;2023-12-20T01:07:17;1.35;;;1.10;;
41923;SDS011;27613;48.116;11.656;2023-12-20T01:09:43;2.42;;;1.40;;
41923;SDS011;27613;48.116;11.656;2023-12-20T01:12:09;1.73;;;1.20;;
41923;SDS011;27613;48.116;11.656;2023-12-20T01:14:35;2.33;;;1.55;;
41923;SDS011;27613;48.116;11.656;2023-12-20T01:17:01;1.35;;;1.10;;
41923;SDS011;27613;48.116;11.656;2023-12-20T01:19:27;3.00;;;1.50;;
41923;SDS011;27613;48.116;11.656;2023-12-20T01:21:53;1.70;;;1.30;;
41923;SDS011;27613;48.116;11.656;2023-12-20T01:24:18;1.58;;;1.13;;
41923;SDS011;27613;48.116;11.656;2023-12-20T01:26:44;2.33;;;1.50;;
41923;SDS011;27613;48.116;11.656;2023-12-20T01:29:09;1.92;;;1.30;;
41923;SDS011;27613;48.116;11.656;2023-12-20T01:31:35;1.77;;;1.17;;
41923;SDS011;27613;48.116;11.656;2023-12-20T01:34:00;2.05;;;1.40;;
41923;SDS011;27613;48.116;11.656;2023-12-20T01:36:26;1.60;;;1.30;;
41923;SDS011;27613;48.116;11.656;2023-12-20T01:38:52;1.77;;;1.27;;
41923;SDS011;27613;48.116;11.656;2023-12-20T01:41:17;2.22;;;1.42;;
41923;SDS011;27613;48.116;11.656;2023-12-20T01:43:43;1.90;;;1.40;;
41923;SDS011;27613;48.116;11.656;2023-12-20T01:46:08;2.67;;;1.38;;
41923;SDS011;27613;48.116;11.656;2023-12-20T01:48:34;1.90;;;1.30;;
41923;SDS011;27613;48.116;11.656;2023-12-20T01:51:00;1.77;;;1.17;;
41923;SDS011;27613;48.116;11.656;2023-12-20T01:53:27;1.73;;;1.20;;
41923;SDS011;27613;48.116;11.656;2023-12-20T01:55:54;1.20;;;1.08;;
41923;SDS011;27613;48.116;11.656;2023-12-20T01:58:21;1.38;;;1.08;;
41923;SDS011;27613;48.116;11.656;2023-12-20T02:00:48;1.67;;;1.20;;
41923;SDS011;27613;48.116;11.656;2023-12-20T02:03:14;1.10;;;0.93;;
41923;SDS011;27613;48.116;11.656;2023-12-20T02:05:40;2.20;;;1.10;;
41923;SDS011;27613;48.116;11.656;2023-12-20T02:08:06;2.35;;;1.33;;
41923;SDS011;27613;48.116;11.656;2023-12-20T02:10:32;1.48;;;1.08;;
41923;SDS011;27613;48.116;11.656;2023-12-20T02:12:57;1.38;;;1.10;;
41923;SDS011;27613;48.116;11.656;2023-12-20T02:15:23;1.20;;;1.00;;
41923;SDS011;27613;48.116;11.656;2023-12-20T02:17:49;1.25;;;1.00;;
41923;SDS011;27613;48.116;11.656;2023-12-20T02:20:15;1.30;;;0.90;;
41923;SDS011;27613;48.116;11.656;2023-12-20T02:22:40;1.60;;;1.10;;
41923;SDS011;27613;48.116;11.656;2023-12-20T02:25:06;2.28;;;1.30;;
41923;SDS011;27613;48.116;11.656;2023-12-20T02:27:32;1.63;;;1.13;;
41923;SDS011;27613;48.116;11.656;2023-12-20T02:29:57;1.30;;;0.90;;
41923;SDS011;27613;48.116;11.656;2023-12-20T02:32:23;1.60;;;1.08;;
41923;SDS011;27613;48.116;11.656;2023-12-20T02:34:53;1.70;;;1.10;;
41923;SDS011;27613;48.116;11.656;2023-12-20T02:37:18;0.90;;;0.80;;
41923;SDS011;27613;48.116;11.656;2023-12-20T02:39:44;0.80;;;0.65;;
41923;SDS011;27613;48.116;11.656;2023-12-20T02:42:09;1.17;;;0.82;;
41923;SDS011;27613;48.116;11.656;2023-12-20T02:44:35;1.00;;;0.90;;
41923;SDS011;27613;48.116;11.656;2023-12-20T02:47:01;0.98;;;0.90;;
41923;SDS011;27613;48.116;11.656;2023-12-20T02:49:27;1.30;;;0.70;;
41923;SDS011;27613;48.116;11.656;2023-12-20T02:51:52;1.50;;;1.08;;
41923;SDS011;27613;48.116;11.656;2023-12-20T02:54:18;1.67;;;1.00;;
41923;SDS011;27613;48.116;11.656;2023-12-20T02:56:43;0.95;;;0.88;;
41923;SDS011;27613;48.116;11.656;2023-12-20T02:59:09;1.17;;;0.93;;
41923;SDS011;27613;48.116;11.656;2023-12-20T03:01:35;0.80;;;0.80;;
41923;SDS011;27613;48.116;11.656;2023-12-20T03:04:00;1.10;;;0.80;;
41923;SDS011;27613;48.116;11.656;2023-12-20T03:06:26;1.63;;;0.98;;
41923;SDS011;27613;48.116;11.656;2023-12-20T03:08:52;0.77;;;0.73;;
41923;SDS011;27613;48.116;11.656;2023-12-20T03:11:17;1.00;;;0.90;;
41923;SDS011;27613;48.116;11.656;2023-12-20T03:13:43;0.75;;;0.70;;
41923;SDS011;27613;48.116;11.656;2023-12-20T03:16:09;0.80;;;0.80;;
41923;SDS011;27613;48.116;11.656;2023-12-20T03:18:38;1.20;;;0.88;;
41923;SDS011;27613;48.116;11.656;2023-12-20T03:21:04;1.25;;;1.00;;
41923;SDS011;27613;48.116;11.656;2023-12-20T03:23:30;1.00;;;0.90;;
41923;SDS011;27613;48.116;11.656;2023-12-20T03:25:57;0.70;;;0.70;;
41923;SDS011;27613;48.116;11.656;2023-12-20T03:28:23;1.17;;;0.90;;
41923;SDS011;27613;48.116;11.656;2023-12-20T03:30:49;1.15;;;0.90;;
41923;SDS011;27613;48.116;11.656;2023-12-20T03:33:14;1.00;;;0.90;;
41923;SDS011;27613;48.116;11.656;2023-12-20T03:35:40;0.80;;;0.80;;
41923;SDS011;27613;48.116;11.656;2023-12-20T03:38:06;1.50;;;0.98;;
41923;SDS011;27613;48.116;11.656;2023-12-20T03:40:32;1.27;;;0.70;;
41923;SDS011;27613;48.116;11.656;2023-12-20T03:42:57;1.00;;;0.82;;
41923;SDS011;27613;48.116;11.656;2023-12-20T03:45:23;0.77;;;0.77;;
41923;SDS011;27613;48.116;11.656;2023-12-20T03:47:49;0.68;;;0.68;;
41923;SDS011;27613;48.116;11.656;2023-12-20T03:50:15;2.70;;;1.58;;
41923;SDS011;27613;48.116;11.656;2023-12-20T03:52:41;0.70;;;0.70;;
41923;SDS011;27613;48.116;11.656;2023-12-20T03:55:06;1.73;;;0.80;;
41923;SDS011;27613;48.116;11.656;2023-12-20T03:57:32;0.60;;;0.60;;
41923;SDS011;27613;48.116;11.656;2023-12-20T03:59:57;1.10;;;0.73;;
41923;SDS011;27613;48.116;11.656;2023-12-20T04:02:23;0.95;;;0.85;;
41923;SDS011;27613;48.116;11.656;2023-12-20T04:04:48;1.25;;;0.70;;
41923;SDS011;27613;48.116;11.656;2023-12-20T04:07:14;1.05;;;0.80;;
41923;SDS011;27613;48.116;11.656;2023-12-20T04:09:40;0.85;;;0.80;;
41923;SDS011;27613;48.116;11.656;2023-12-20T04:12:06;0.82;;;0.80;;
41923;SDS011;27613;48.116;11.656;2023-12-20T04:14:32;0.70;;;0.70;;
41923;SDS011;27613;48.116;11.656;2023-12-20T04:16:57;0.70;;;0.70;;
41923;SDS011;27613;48.116;11.656;2023-12-20T04:19:23;0.82;;;0.75;;
41923;SDS011;27613;48.116;11.656;2023-12-20T04:21:49;0.90;;;0.68;;
41923;SDS011;27613;48.116;11.656;2023-12-20T04:24:14;1.70;;;0.70;;
41923;SDS011;27613;48.116;11.656;2023-12-20T04:26:40;0.50;;;0.50;;
41923;SDS011;27613;48.116;11.656;2023-12-20T04:29:05;1.40;;;0.90;;
41923;SDS011;27613;48.116;11.656;2023-12-20T04:31:31;1.15;;;0.80;;
41923;SDS011;27613;48.116;11.656;2023-12-20T04:33:56;0.80;;;0.70;;
41923;SDS011;27613;48.116;11.656;2023-12-20T04:36:22;0.98;;;0.73;;
41923;SDS011;27613;48.116;11.656;2023-12-20T04:38:48;0.90;;;0.80;;
41923;SDS011;27613;48.116;11.656;2023-12-20T04:41:14;0.60;;;0.60;;
41923;SDS011;27613;48.116;11.656;2023-12-20T04:43:41;0.95;;;0.68;;
41923;SDS011;27613;48.116;11.656;2023-12-20T04:46:06;1.25;;;1.00;;
41923;SDS011;27613;48.116;11.656;2023-12-20T04:48:32;1.30;;;0.90;;
41923;SDS011;27613;48.116;11.656;2023-12-20T04:50:57;1.63;;;1.05;;
41923;SDS011;27613;48.116;11.656;2023-12-20T04:53:23;1.00;;;0.90;;
41923;SDS011;27613;48.116;11.656;2023-12-20T04:55:48;0.70;;;0.70;;
41923;SDS011;27613;48.116;11.656;2023-12-20T04:58:14;1.63;;;0.70;;
41923;SDS011;27613;48.116;11.656;2023-12-20T05:00:39;1.65;;;1.08;;
41923;SDS011;27613;48.116;11.656;2023-12-20T05:03:05;1.48;;;0.85;;
41923;SDS011;27613;48.116;11.656;2023-12-20T05:05:30;1.38;;;1.10;;
41923;SDS011;27613;48.116;11.656;2023-12-20T05:07:56;1.25;;;0.95;;
41923;SDS011;27613;48.116;11.656;2023-12-20T05:10:22;0.95;;;0.85;;
41923;SDS011;27613;48.116;11.656;2023-12-20T05:12:47;0.98;;;0.88;;
41923;SDS011;27613;48.116;11.656;2023-12-20T05:15:13;1.55;;;1.20;;
41923;SDS011;27613;48.116;11.656;2023-12-20T05:17:39;1.38;;;1.10;;
41923;SDS011;27613;48.116;11.656;2023-12-20T05:20:04;1.58;;;1.20;;
41923;SDS011;27613;48.116;11.656;2023-12-20T05:22:31;1.80;;;1.30;;
41923;SDS011;27613;48.116;11.656;2023-12-20T05:24:56;1.88;;;1.35;;
41923;SDS011;27613;48.116;11.656;2023-12-20T05:27:22;1.75;;;1.20;;
41923;SDS011;27613;48.116;11.656;2023-12-20T05:29:47;1.30;;;1.00;;
41923;SDS011;27613;48.116;11.656;2023-12-20T05:32:13;1.50;;;1.10;;
41923;SDS011;27613;48.116;11.656;2023-12-20T05:34:38;1.10;;;1.00;;
41923;SDS011;27613;48.116;11.656;2023-12-20T05:37:04;1.70;;;1.20;;
41923;SDS011;27613;48.116;11.656;2023-12-20T05:39:29;2.58;;;1.20;;
41923;SDS011;27613;48.116;11.656;2023-12-20T05:41:55;1.35;;;1.08;;
41923;SDS011;27613;48.116;11.656;2023-12-20T05:44:21;1.58;;;1.20;;
41923;SDS011;27613;48.116;11.656;2023-12-20T05:46:47;3.88;;;1.60;;
41923;SDS011;27613;48.116;11.656;2023-12-20T05:49:12;1.95;;;1.30;;
41923;SDS011;27613;48.116;11.656;2023-12-20T05:51:38;1.73;;;1.30;;
41923;SDS011;27613;48.116;11.656;2023-12-20T05:54:04;1.85;;;1.15;;
41923;SDS011;27613;48.116;11.656;2023-12-20T05:56:29;1.40;;;1.20;;
41923;SDS011;27613;48.116;11.656;2023-12-20T05:58:55;3.08;;;1.40;;
41923;SDS011;27613;48.116;11.656;2023-12-20T06:01:20;1.88;;;1.27;;
41923;SDS011;27613;48.116;11.656;2023-12-20T06:03:46;2.42;;;1.33;;
41923;SDS011;27613;48.116;11.656;2023-12-20T06:06:11;2.30;;;1.20;;
41923;SDS011;27613;48.116;11.656;2023-12-20T06:08:40;1.80;;;1.30;;
41923;SDS011;27613;48.116;11.656;2023-12-20T06:11:06;1.60;;;1.25;;
41923;SDS011;27613;48.116;11.656;2023-12-20T06:13:31;1.88;;;1.30;;
41923;SDS011;27613;48.116;11.656;2023-12-20T06:15:57;2.67;;;1.50;;
41923;SDS011;27613;48.116;11.656;2023-12-20T06:18:22;1.35;;;1.10;;
41923;SDS011;27613;48.116;11.656;2023-12-20T06:20:49;1.85;;;1.40;;
41923;SDS011;27613;48.116;11.656;2023-12-20T06:23:14;2.22;;;1.30;;
41923;SDS011;27613;48.116;11.656;2023-12-20T06:25:40;1.77;;;1.25;;
41923;SDS011;27613;48.116;11.656;2023-12-20T06:28:06;2.28;;;1.20;;
41923;SDS011;27613;48.116;11.656;2023-12-20T06:30:31;1.88;;;1.20;;
41923;SDS011;27613;48.116;11.656;2023-12-20T06:32:58;2.47;;;1.30;;
41923;SDS011;27613;48.116;11.656;2023-12-20T06:35:24;1.77;;;1.30;;
41923;SDS011;27613;48.116;11.656;2023-12-20T06:37:49;1.77;;;1.38;;
41923;SDS011;27613;48.116;11.656;2023-12-20T06:40:15;1.90;;;1.30;;
41923;SDS011;27613;48.116;11.656;2023-12-20T06:42:41;1.73;;;1.17;;
41923;SDS011;27613;48.116;11.656;2023-12-20T06:45:08;2.40;;;1.27;;
41923;SDS011;27613;48.116;11.656;2023-12-20T06:47:34;1.33;;;1.10;;
41923;SDS011;27613;48.116;11.656;2023-12-20T06:50:00;1.83;;;1.38;;
41923;SDS011;27613;48.116;11.656;2023-12-20T06:52:25;1.88;;;1.27;;
41923;SDS011;27613;48.116;11.656;2023-12-20T06:54:51;1.10;;;1.00;;
41923;SDS011;27613;48.116;11.656;2023-12-20T06:57:17;1.73;;;1.30;;
41923;SDS011;27613;48.116;11.656;2023-12-20T06:59:42;1.83;;;1.20;;
41923;SDS011;27613;48.116;11.656;2023-12-20T07:02:08;1.80;;;1.20;;
41923;SDS011;27613;48.116;11.656;2023-12-20T07:04:35;2.72;;;1.20;;
41923;SDS011;27613;48.116;11.656;2023-12-20T07:07:04;1.38;;;1.13;;
41923;SDS011;27613;48.116;11.656;2023-12-20T07:09:30;0.85;;;0.77;;
41923;SDS011;27613;48.116;11.656;2023-12-20T07:11:55;2.00;;;1.05;;
41923;SDS011;27613;48.116;11.656;2023-12-20T07:14:21;1.05;;;0.88;;
41923;SDS011;27613;48.116;11.656;2023-12-20T07:16:46;1.75;;;1.00;;
41923;SDS011;27613;48.116;11.656;2023-12-20T07:19:12;1.38;;;1.00;;
41923;SDS011;27613;48.116;11.656;2023-12-20T07:21:38;0.85;;;0.80;;
41923;SDS011;27613;48.116;11.656;2023-12-20T07:24:03;1.20;;;0.90;;
41923;SDS011;27613;48.116;11.656;2023-12-20T07:26:29;1.08;;;0.90;;
41923;SDS011;27613;48.116;11.656;2023-12-20T07:28:54;1.05;;;0.88;;
41923;SDS011;27613;48.116;11.656;2023-12-20T07:31:20;0.82;;;0.75;;
41923;SDS011;27613;48.116;11.656;2023-12-20T07:33:45;0.98;;;0.80;;
41923;SDS011;27613;48.116;11.656;2023-12-20T07:36:12;1.25;;;0.90;;
41923;SDS011;27613;48.116;11.656;2023-12-20T07:38:37;0.90;;;0.70;;
41923;SDS011;27613;48.116;11.656;2023-12-20T07:41:03;0.80;;;0.73;;
41923;SDS011;27613;48.116;11.656;2023-12-20T07:43:29;1.10;;;0.82;;
41923;SDS011;27613;48.116;11.656;2023-12-20T07:45:54;1.20;;;0.85;;
41923;SDS011;27613;48.116;11.656;2023-12-20T07:48:20;0.80;;;0.77;;
41923;SDS011;27613;48.116;11.656;2023-12-20T07:50:45;0.70;;;0.70;;
41923;SDS011;27613;48.116;11.656;2023-12-20T07:53:11;0.80;;;0.80;;
41923;SDS011;27613;48.116;11.656;2023-12-20T07:55:36;1.10;;;0.93;;
41923;SDS011;27613;48.116;11.656;2023-12-20T07:58:02;1.67;;;0.95;;
41923;SDS011;27613;48.116;11.656;2023-12-20T08:00:28;1.10;;;0.80;;
41923;SDS011;27613;48.116;11.656;2023-12-20T08:02:53;3.50;;;1.15;;
41923;SDS011;27613;48.116;11.656;2023-12-20T08:05:19;1.15;;;0.90;;
41923;SDS011;27613;48.116;11.656;2023-12-20T08:07:44;1.05;;;0.85;;
41923;SDS011;27613;48.116;11.656;2023-12-20T08:10:10;0.93;;;0.80;;
41923;SDS011;27613;48.116;11.656;2023-12-20T08:12:36;1.17;;;0.90;;
41923;SDS011;27613;48.116;11.656;2023-12-20T08:15:02;1.48;;;1.00;;
41923;SDS011;27613;48.116;11.656;2023-12-20T08:17:28;0.65;;;0.65;;
41923;SDS011;27613;48.116;11.656;2023-12-20T08:19:54;1.08;;;0.90;;
41923;SDS011;27613;48.116;11.656;2023-12-20T08:22:19;0.80;;;0.80;;
41923;SDS011;27613;48.116;11.656;2023-12-20T08:24:45;1.75;;;1.00;;
41923;SDS011;27613;48.116;11.656;2023-12-20T08:27:10;1.00;;;0.90;;
41923;SDS011;27613;48.116;11.656;2023-12-20T08:29:36;0.80;;;0.80;;
41923;SDS011;27613;48.116;11.656;2023-12-20T08:32:02;0.85;;;0.73;;
41923;SDS011;27613;48.116;11.656;2023-12-20T08:34:27;0.98;;;0.90;;
41923;SDS011;27613;48.116;11.656;2023-12-20T08:36:53;1.05;;;0.80;;
41923;SDS011;27613;48.116;11.656;2023-12-20T08:39:19;1.42;;;0.90;;
41923;SDS011;27613;48.116;11.656;2023-12-20T08:41:44;1.05;;;0.82;;
41923;SDS011;27613;48.116;11.656;2023-12-20T08:44:10;0.82;;;0.75;;
41923;SDS011;27613;48.116;11.656;2023-12-20T08:46:35;1.25;;;0.82;;
41923;SDS011;27613;48.116;11.656;2023-12-20T08:49:02;0.80;;;0.73;;
41923;SDS011;27613;48.116;11.656;2023-12-20T08:51:27;1.08;;;0.90;;
41923;SDS011;27613;48.116;11.656;2023-12-20T08:53:53;1.27;;;0.85;;
41923;SDS011;27613;48.116;11.656;2023-12-20T08:56:19;2.75;;;1.00;;
41923;SDS011;27613;48.116;11.656;2023-12-20T08:58:45;1.25;;;1.00;;
41923;SDS011;27613;48.116;11.656;2023-12-20T09:01:12;1.70;;;1.00;;
41923;SDS011;27613;48.116;11.656;2023-12-20T09:03:37;1.05;;;0.93;;
41923;SDS011;27613;48.116;11.656;2023-12-20T09:06:04;1.00;;;0.80;;
41923;SDS011;27613;48.116;11.656;2023-12-20T09:08:30;0.70;;;0.70;;
41923;SDS011;27613;48.116;11.656;2023-12-20T09:10:56;0.70;;;0.70;;
41923;SDS011;27613;48.116;11.656;2023-12-20T09:13:21;0.93;;;0.80;;
41923;SDS011;27613;48.116;11.656;2023-12-20T09:15:51;1.92;;;0.90;;
41923;SDS011;27613;48.116;11.656;2023-12-20T09:18:17;1.77;;;0.90;;
41923;SDS011;27613;48.116;11.656;2023-12-20T09:20:42;2.38;;;0.82;;
41923;SDS011;27613;48.116;11.656;2023-12-20T09:23:08;1.08;;;0.98;;
41923;SDS011;27613;48.116;11.656;2023-12-20T09:25:33;1.08;;;0.90;;
41923;SDS011;27613;48.116;11.656;2023-12-20T09:27:59;1.38;;;0.80;;
41923;SDS011;27613;48.116;11.656;2023-12-20T09:30:24;0.65;;;0.65;;
41923;SDS011;27613;48.116;11.656;2023-12-20T09:32:50;0.70;;;0.70;;
41923;SDS011;27613;48.116;11.656;2023-12-20T09:35:15;1.02;;;0.82;;
41923;SDS011;27613;48.116;11.656;2023-12-20T09:37:41;0.75;;;0.75;;
41923;SDS011;27613;48.116;11.656;2023-12-20T09:40:09;0.40;;;0.40;;
41923;SDS011;27613;48.116;11.656;2023-12-20T09:42:39;1.00;;;0.80;;
41923;SDS011;27613;48.116;11.656;2023-12-20T09:45:08;0.77;;;0.70;;
41923;SDS011;27613;48.116;11.656;2023-12-20T09:47:37;0.70;;;0.70;;
41923;SDS011;27613;48.116;11.656;2023-12-20T09:50:02;0.70;;;0.70;;
41923;SDS011;27613;48.116;11.656;2023-12-20T09:52:28;2.38;;;0.85;;
41923;SDS011;27613;48.116;11.656;2023-12-20T09:54:55;0.82;;;0.65;;
41923;SDS011;27613;48.116;11.656;2023-12-20T09:57:22;1.80;;;0.80;;
41923;SDS011;27613;48.116;11.656;2023-12-20T09:59:47;0.95;;;0.80;;
41923;SDS011;27613;48.116;11.656;2023-12-20T10:02:13;1.40;;;0.70;;
41923;SDS011;27613;48.116;11.656;2023-12-20T10:04:42;1.15;;;0.85;;
41923;SDS011;27613;48.116;11.656;2023-12-20T10:07:12;0.70;;;0.70;;
41923;SDS011;27613;48.116;11.656;2023-12-20T10:09:38;0.73;;;0.65;;
41923;SDS011;27613;48.116;11.656;2023-12-20T10:12:04;1.33;;;1.00;;
41923;SDS011;27613;48.116;11.656;2023-12-20T10:14:30;0.93;;;0.80;;
41923;SDS011;27613;48.116;11.656;2023-12-20T10:17:01;0.93;;;0.80;;
41923;SDS011;27613;48.116;11.656;2023-12-20T10:19:28;1.08;;;0.80;;
41923;SDS011;27613;48.116;11.656;2023-12-20T10:21:54;1.17;;;0.85;;
41923;SDS011;27613;48.116;11.656;2023-12-20T10:24:19;0.90;;;0.70;;
41923;SDS011;27613;48.116;11.656;2023-12-20T10:26:45;1.48;;;0.98;;
41923;SDS011;27613;48.116;11.656;2023-12-20T10:29:11;1.20;;;0.88;;
41923;SDS011;27613;48.116;11.656;2023-12-20T10:31:37;1.65;;;1.08;;
41923;SDS011;27613;48.116;11.656;2023-12-20T10:34:05;0.70;;;0.70;;
41923;SDS011;27613;48.116;11.656;2023-12-20T10:36:32;2.08;;;0.90;;
41923;SDS011;27613;48.116;11.656;2023-12-20T10:38:58;2.33;;;0.93;;
41923;SDS011;27613;48.116;11.656;2023-12-20T10:41:25;1.73;;;1.15;;
41923;SDS011;27613;48.116;11.656;2023-12-20T10:44:01;1.02;;;0.70;;
41923;SDS011;27613;48.116;11.656;2023-12-20T10:46:28;0.90;;;0.82;;
41923;SDS011;27613;48.116;11.656;2023-12-20T10:48:55;2.03;;;0.80;;
41923;SDS011;27613;48.116;11.656;2023-12-20T10:51:21;0.90;;;0.70;;
41923;SDS011;27613;48.116;11.656;2023-12-20T10:53:49;1.20;;;0.82;;
41923;SDS011;27613;48.116;11.656;2023-12-20T10:56:16;2.17;;;1.60;;
41923;SDS011;27613;48.116;11.656;2023-12-20T10:58:46;2.22;;;1.30;;
41923;SDS011;27613;48.116;11.656;2023-12-20T11:01:13;1.05;;;0.90;;
41923;SDS011;27613;48.116;11.656;2023-12-20T11:03:43;1.52;;;0.98;;
41923;SDS011;27613;48.116;11.656;2023-12-20T11:08:55;2.00;;;1.00;;
41923;SDS011;27613;48.116;11.656;2023-12-20T11:11:55;0.85;;;0.85;;
41923;SDS011;27613;48.116;11.656;2023-12-20T11:17:06;2.78;;;0.85;;
41923;SDS011;27613;48.116;11.656;2023-12-20T11:19:38;0.70;;;0.70;;
41923;SDS011;27613;48.116;11.656;2023-12-20T11:22:21;0.75;;;0.68;;
41923;SDS011;27613;48.116;11.656;2023-12-20T11:24:47;1.05;;;0.80;;
41923;SDS011;27613;48.116;11.656;2023-12-20T11:27:14;0.85;;;0.85;;
41923;SDS011;27613;48.116;11.656;2023-12-20T11:29:40;1.15;;;0.70;;
41923;SDS011;27613;48.116;11.656;2023-12-20T11:34:54;1.60;;;0.82;;
41923;SDS011;27613;48.116;11.656;2023-12-20T11:37:31;0.80;;;0.80;;
41923;SDS011;27613;48.116;11.656;2023-12-20T11:40:01;2.03;;;1.20;;
41923;SDS011;27613;48.116;11.656;2023-12-20T11:42:32;0.70;;;0.70;;
41923;SDS011;27613;48.116;11.656;2023-12-20T11:44:59;1.15;;;0.85;;
41923;SDS011;27613;48.116;11.656;2023-12-20T11:47:28;1.25;;;1.05;;
41923;SDS011;27613;48.116;11.656;2023-12-20T11:49:54;1.90;;;1.38;;
41923;SDS011;27613;48.116;11.656;2023-12-20T11:52:21;1.50;;;1.25;;
41923;SDS011;27613;48.116;11.656;2023-12-20T11:54:46;1.13;;;0.85;;
41923;SDS011;27613;48.116;11.656;2023-12-20T11:57:13;1.55;;;1.10;;
41923;SDS011;27613;48.116;11.656;2023-12-20T11:59:38;1.30;;;0.82;;
41923;SDS011;27613;48.116;11.656;2023-12-20T12:02:04;1.52;;;1.02;;
41923;SDS011;27613;48.116;11.656;2023-12-20T12:04:30;1.65;;;1.23;;
41923;SDS011;27613;48.116;11.656;2023-12-20T12:06:56;1.58;;;1.02;;
41923;SDS011;27613;48.116;11.656;2023-12-20T12:09:21;1.00;;;0.80;;
41923;SDS011;27613;48.116;11.656;2023-12-20T12:11:47;1.85;;;1.10;;
41923;SDS011;27613;48.116;11.656;2023-12-20T12:14:12;1.00;;;0.90;;
41923;SDS011;27613;48.116;11.656;2023-12-20T12:16:38;1.02;;;0.90;;
41923;SDS011;27613;48.116;11.656;2023-12-20T12:19:03;1.00;;;0.90;;
41923;SDS011;27613;48.116;11.656;2023-12-20T12:21:29;0.98;;;0.82;;
41923;SDS011;27613;48.116;11.656;2023-12-20T12:24:05;1.98;;;1.13;;
41923;SDS011;27613;48.116;11.656;2023-12-20T12:26:32;1.23;;;1.00;;
41923;SDS011;27613;48.116;11.656;2023-12-20T12:28:57;1.10;;;0.75;;
41923;SDS011;27613;48.116;11.656;2023-12-20T12:31:23;1.10;;;1.00;;
41923;SDS011;27613;48.116;11.656;2023-12-20T12:33:50;1.20;;;0.90;;
41923;SDS011;27613;48.116;11.656;2023-12-20T12:36:16;1.08;;;0.90;;
41923;SDS011;27613;48.116;11.656;2023-12-20T12:38:42;1.70;;;1.13;;
41923;SDS011;27613;48.116;11.656;2023-12-20T12:41:08;1.48;;;0.98;;
41923;SDS011;27613;48.116;11.656;2023-12-20T12:43:35;0.82;;;0.82;;
41923;SDS011;27613;48.116;11.656;2023-12-20T12:46:00;1.55;;;0.98;;
41923;SDS011;27613;48.116;11.656;2023-12-20T12:48:26;0.70;;;0.68;;
41923;SDS011;27613;48.116;11.656;2023-12-20T12:50:53;1.42;;;0.95;;
41923;SDS011;27613;48.116;11.656;2023-12-20T12:53:19;1.08;;;0.93;;
41923;SDS011;27613;48.116;11.656;2023-12-20T12:55:48;2.03;;;1.20;;
41923;SDS011;27613;48.116;11.656;2023-12-20T12:58:13;1.33;;;1.13;;
41923;SDS011;27613;48.116;11.656;2023-12-20T13:00:39;1.52;;;1.05;;
41923;SDS011;27613;48.116;11.656;2023-12-20T13:03:04;1.00;;;0.90;;
41923;SDS011;27613;48.116;11.656;2023-12-20T13:05:30;1.20;;;1.10;;
41923;SDS011;27613;48.116;11.656;2023-12-20T13:07:56;1.77;;;1.10;;
41923;SDS011;27613;48.116;11.656;2023-12-20T13:10:22;1.27;;;0.98;;
41923;SDS011;27613;48.116;11.656;2023-12-20T13:12:47;1.65;;;1.02;;
41923;SDS011;27613;48.116;11.656;2023-12-20T13:15:13;1.30;;;1.13;;
41923;SDS011;27613;48.116;11.656;2023-12-20T13:17:38;1.88;;;1.05;;
41923;SDS011;27613;48.116;11.656;2023-12-20T13:20:05;1.20;;;1.00;;
41923;SDS011;27613;48.116;11.656;2023-12-20T13:22:31;1.23;;;1.00;;
41923;SDS011;27613;48.116;11.656;2023-12-20T13:24:57;1.42;;;1.15;;
41923;SDS011;27613;48.116;11.656;2023-12-20T13:27:22;1.17;;;1.00;;
41923;SDS011;27613;48.116;11.656;2023-12-20T13:29:48;1.38;;;1.10;;
41923;SDS011;27613;48.116;11.656;2023-12-20T13:32:14;1.25;;;1.00;;
41923;SDS011;27613;48.116;11.656;2023-12-20T13:34:40;1.80;;;1.08;;
41923;SDS011;27613;48.116;11.656;2023-12-20T13:37:05;1.77;;;1.00;;
41923;SDS011;27613;48.116;11.656;2023-12-20T13:39:30;1.50;;;1.02;;
41923;SDS011;27613;48.116;11.656;2023-12-20T13:41:56;1.38;;;1.02;;
41923;SDS011;27613;48.116;11.656;2023-12-20T13:44:22;2.83;;;1.50;;
41923;SDS011;27613;48.116;11.656;2023-12-20T13:46:48;2.40;;;1.42;;
41923;SDS011;27613;48.116;11.656;2023-12-20T13:49:15;3.72;;;1.50;;
41923;SDS011;27613;48.116;11.656;2023-12-20T13:51:40;3.08;;;1.48;;
41923;SDS011;27613;48.116;11.656;2023-12-20T13:54:06;4.47;;;1.80;;
41923;SDS011;27613;48.116;11.656;2023-12-20T13:56:31;2.13;;;1.20;;
41923;SDS011;27613;48.116;11.656;2023-12-20T13:58:58;1.95;;;1.30;;
41923;SDS011;27613;48.116;11.656;2023-12-20T14:01:24;3.22;;;1.38;;
41923;SDS011;27613;48.116;11.656;2023-12-20T14:03:51;2.90;;;1.33;;
41923;SDS011;27613;48.116;11.656;2023-12-20T14:06:17;2.25;;;1.35;;
41923;SDS011;27613;48.116;11.656;2023-12-20T14:08:42;3.53;;;1.50;;
41923;SDS011;27613;48.116;11.656;2023-12-20T14:11:08;2.20;;;1.38;;
41923;SDS011;27613;48.116;11.656;2023-12-20T14:13:34;2.03;;;1.23;;
41923;SDS011;27613;48.116;11.656;2023-12-20T14:15:59;1.90;;;1.23;;
41923;SDS011;27613;48.116;11.656;2023-12-20T14:18:26;2.15;;;1.42;;
41923;SDS011;27613;48.116;11.656;2023-12-20T14:20:52;10.48;;;2.25;;
41923;SDS011;27613;48.116;11.656;2023-12-20T14:23:18;3.03;;;1.70;;
41923;SDS011;27613;48.116;11.656;2023-12-20T14:25:44;3.50;;;1.80;;
41923;SDS011;27613;48.116;11.656;2023-12-20T14:28:10;3.40;;;1.40;;
41923;SDS011;27613;48.116;11.656;2023-12-20T14:30:37;2.13;;;1.40;;
41923;SDS011;27613;48.116;11.656;2023-12-20T14:33:03;1.50;;;1.17;;
41923;SDS011;27613;48.116;11.656;2023-12-20T14:35:29;3.80;;;1.70;;